sensor_id;sensor_type;location;lat;lon;timestamp;pressure;altitude;pressure_sealevel;temperature;humidity
21753;BME280;11038;50.940;20.564;2022-09-13T00:00:07;97652.28;;;10.72;90.42
21753;BME280;11038;50.940;20.564;2022-09-13T00:01:59;97643.94;;;10.67;90.21
21753;BME280;11038;50.940;20.564;2022-09-13T00:03:32;97648.97;;;10.62;90.49
21753;BME280;11038;50.940;20.564;2022-09-13T00:05:04;97645.84;;;10.58;90.31
21753;BME280;11038;50.940;20.564;2022-09-13T00:06:36;97643.66;;;10.54;90.30
21753;BME280;11038;50.940;20.564;2022-09-13T00:08:09;97646.81;;;10.49;90.75
21753;BME280;11038;50.940;20.564;2022-09-13T00:09:41;97649.84;;;10.46;90.84
21753;BME280;11038;50.940;20.564;2022-09-13T00:11:17;97648.69;;;10.40;90.58
21753;BME280;11038;50.940;20.564;2022-09-13T00:12:50;97651.88;;;10.35;90.79
21753;BME280;11038;50.940;20.564;2022-09-13T00:14:23;97648.03;;;10.29;91.53
21753;BME280;11038;50.940;20.564;2022-09-13T00:15:57;97653.09;;;10.16;92.26
21753;BME280;11038;50.940;20.564;2022-09-13T00:17:32;97656.41;;;10.18;92.96
21753;BME280;11038;50.940;20.564;2022-09-13T00:19:04;97662.13;;;10.15;93.91
21753;BME280;11038;50.940;20.564;2022-09-13T00:20:36;97671.63;;;10.09;94.31
21753;BME280;11038;50.940;20.564;2022-09-13T00:22:08;97668.44;;;10.05;95.02
21753;BME280;11038;50.940;20.564;2022-09-13T00:23:45;97667.94;;;10.02;95.24
21753;BME280;11038;50.940;20.564;2022-09-13T00:25:17;97668.47;;;9.97;95.03
21753;BME280;11038;50.940;20.564;2022-09-13T00:26:49;97662.78;;;9.92;95.22
21753;BME280;11038;50.940;20.564;2022-09-13T00:28:22;97663.97;;;9.89;95.28
21753;BME280;11038;50.940;20.564;2022-09-13T00:29:54;97667.97;;;9.85;95.06
21753;BME280;11038;50.940;20.564;2022-09-13T00:31:27;97662.97;;;9.82;95.01
21753;BME280;11038;50.940;20.564;2022-09-13T00:33:00;97660.66;;;9.79;95.13
21753;BME280;11038;50.940;20.564;2022-09-13T00:34:35;97668.13;;;9.75;94.81
21753;BME280;11038;50.940;20.564;2022-09-13T00:36:09;97657.13;;;9.70;94.91
21753;BME280;11038;50.940;20.564;2022-09-13T00:37:42;97658.13;;;9.69;94.85
21753;BME280;11038;50.940;20.564;2022-09-13T00:39:14;97655.81;;;9.66;95.28
21753;BME280;11038;50.940;20.564;2022-09-13T00:40:46;97648.47;;;9.59;94.87
21753;BME280;11038;50.940;20.564;2022-09-13T00:42:24;97655.81;;;9.57;95.32
21753;BME280;11038;50.940;20.564;2022-09-13T00:43:59;97652.47;;;9.38;97.37
21753;BME280;11038;50.940;20.564;2022-09-13T00:45:31;97660.94;;;9.34;97.66
21753;BME280;11038;50.940;20.564;2022-09-13T00:47:04;97653.28;;;9.39;98.71
21753;BME280;11038;50.940;20.564;2022-09-13T00:48:36;97649.94;;;9.37;98.71
21753;BME280;11038;50.940;20.564;2022-09-13T00:50:20;97654.44;;;9.36;98.98
21753;BME280;11038;50.940;20.564;2022-09-13T00:53:33;97645.13;;;9.32;98.86
21753;BME280;11038;50.940;20.564;2022-09-13T00:55:16;97643.75;;;9.28;99.39
21753;BME280;11038;50.940;20.564;2022-09-13T00:56:53;97641.41;;;9.25;99.53
21753;BME280;11038;50.940;20.564;2022-09-13T00:58:31;97645.44;;;9.21;99.75
21753;BME280;11038;50.940;20.564;2022-09-13T01:00:10;97642.75;;;9.21;99.78
21753;BME280;11038;50.940;20.564;2022-09-13T01:01:47;97640.25;;;9.11;99.89
21753;BME280;11038;50.940;20.564;2022-09-13T01:03:22;97641.41;;;9.08;99.57
21753;BME280;11038;50.940;20.564;2022-09-13T01:04:57;97638.22;;;9.04;99.97
21753;BME280;11038;50.940;20.564;2022-09-13T01:06:32;97634.06;;;9.02;99.71
21753;BME280;11038;50.940;20.564;2022-09-13T01:08:06;97629.06;;;8.99;99.94
21753;BME280;11038;50.940;20.564;2022-09-13T01:09:45;97634.72;;;8.95;99.57
21753;BME280;11038;50.940;20.564;2022-09-13T01:11:47;97631.19;;;8.95;99.74
21753;BME280;11038;50.940;20.564;2022-09-13T01:13:25;97636.03;;;8.91;99.57
21753;BME280;11038;50.940;20.564;2022-09-13T01:15:00;97634.22;;;8.92;99.56
21753;BME280;11038;50.940;20.564;2022-09-13T01:16:35;97631.03;;;8.88;99.50
21753;BME280;11038;50.940;20.564;2022-09-13T01:18:08;97631.69;;;8.90;99.83
21753;BME280;11038;50.940;20.564;2022-09-13T01:19:41;97628.88;;;8.92;99.41
21753;BME280;11038;50.940;20.564;2022-09-13T01:30:21;97642.88;;;8.94;99.21
21753;BME280;11038;50.940;20.564;2022-09-13T01:36:00;97633.19;;;8.93;98.84
21753;BME280;11038;50.940;20.564;2022-09-13T01:37:55;97636.72;;;8.93;99.13
21753;BME280;11038;50.940;20.564;2022-09-13T01:43:26;97629.72;;;9.01;99.12
21753;BME280;11038;50.940;20.564;2022-09-13T01:45:19;97635.88;;;9.01;99.34
21753;BME280;11038;50.940;20.564;2022-09-13T01:50:56;97635.38;;;9.06;99.23
21753;BME280;11038;50.940;20.564;2022-09-13T01:56:07;97628.75;;;9.10;98.96
21753;BME280;11038;50.940;20.564;2022-09-13T01:57:55;97622.09;;;9.14;98.97
21753;BME280;11038;50.940;20.564;2022-09-13T01:59:53;97629.41;;;9.12;98.81
21753;BME280;11038;50.940;20.564;2022-09-13T02:01:36;97628.56;;;9.12;98.90
21753;BME280;11038;50.940;20.564;2022-09-13T02:03:15;97632.09;;;9.12;98.77
21753;BME280;11038;50.940;20.564;2022-09-13T02:04:52;97628.44;;;9.13;98.44
21753;BME280;11038;50.940;20.564;2022-09-13T02:06:30;97630.25;;;9.13;98.34
21753;BME280;11038;50.940;20.564;2022-09-13T02:08:17;97626.25;;;9.17;98.51
21753;BME280;11038;50.940;20.564;2022-09-13T02:09:57;97630.06;;;9.14;98.02
21753;BME280;11038;50.940;20.564;2022-09-13T02:11:32;97630.91;;;9.15;98.22
21753;BME280;11038;50.940;20.564;2022-09-13T02:13:10;97628.91;;;9.17;97.97
21753;BME280;11038;50.940;20.564;2022-09-13T02:14:50;97623.44;;;9.18;97.63
21753;BME280;11038;50.940;20.564;2022-09-13T02:16:30;97618.78;;;9.21;97.98
21753;BME280;11038;50.940;20.564;2022-09-13T02:18:11;97622.75;;;9.25;97.85
21753;BME280;11038;50.940;20.564;2022-09-13T02:19:52;97623.09;;;9.22;97.79
21753;BME280;11038;50.940;20.564;2022-09-13T02:21:29;97615.59;;;9.25;97.85
21753;BME280;11038;50.940;20.564;2022-09-13T02:23:08;97621.78;;;9.26;97.48
21753;BME280;11038;50.940;20.564;2022-09-13T02:24:46;97627.44;;;9.23;97.58
21753;BME280;11038;50.940;20.564;2022-09-13T02:26:21;97617.78;;;9.30;97.83
21753;BME280;11038;50.940;20.564;2022-09-13T02:27:59;97614.09;;;9.31;97.62
21753;BME280;11038;50.940;20.564;2022-09-13T02:29:35;97616.13;;;9.29;97.33
21753;BME280;11038;50.940;20.564;2022-09-13T02:31:09;97610.59;;;9.30;97.52
21753;BME280;11038;50.940;20.564;2022-09-13T02:34:21;97607.59;;;9.34;97.17
21753;BME280;11038;50.940;20.564;2022-09-13T02:37:33;97603.78;;;9.36;97.32
21753;BME280;11038;50.940;20.564;2022-09-13T02:39:11;97594.78;;;9.37;96.99
21753;BME280;11038;50.940;20.564;2022-09-13T02:40:50;97598.94;;;9.15;97.22
21753;BME280;11038;50.940;20.564;2022-09-13T02:42:34;97600.41;;;9.09;97.23
21753;BME280;11038;50.940;20.564;2022-09-13T02:44:26;97592.59;;;9.07;97.55
21753;BME280;11038;50.940;20.564;2022-09-13T02:46:11;97593.06;;;8.86;97.27
21753;BME280;11038;50.940;20.564;2022-09-13T02:51:13;97584.63;;;8.56;96.89
21753;BME280;11038;50.940;20.564;2022-09-13T02:52:58;97584.63;;;8.56;96.99
21753;BME280;11038;50.940;20.564;2022-09-13T02:54:39;97577.94;;;8.51;96.85
21753;BME280;11038;50.940;20.564;2022-09-13T02:58:46;97581.41;;;8.44;96.85
21753;BME280;11038;50.940;20.564;2022-09-13T03:00:20;97575.56;;;8.40;97.25
21753;BME280;11038;50.940;20.564;2022-09-13T03:01:57;97578.56;;;8.37;97.72
21753;BME280;11038;50.940;20.564;2022-09-13T03:03:30;97572.50;;;8.26;97.70
21753;BME280;11038;50.940;20.564;2022-09-13T03:05:03;97574.16;;;8.19;97.58
21753;BME280;11038;50.940;20.564;2022-09-13T03:06:36;97574.78;;;8.13;98.31
21753;BME280;11038;50.940;20.564;2022-09-13T03:08:11;97572.28;;;8.11;98.44
21753;BME280;11038;50.940;20.564;2022-09-13T03:09:51;97572.25;;;8.03;98.64
21753;BME280;11038;50.940;20.564;2022-09-13T03:12:01;97567.75;;;8.03;98.94
21753;BME280;11038;50.940;20.564;2022-09-13T03:17:53;97556.91;;;7.96;99.73
21753;BME280;11038;50.940;20.564;2022-09-13T03:20:01;97557.25;;;7.93;99.97
21753;BME280;11038;50.940;20.564;2022-09-13T03:22:03;97564.22;;;7.94;100.00
21753;BME280;11038;50.940;20.564;2022-09-13T03:24:01;97561.03;;;7.91;100.00
21753;BME280;11038;50.940;20.564;2022-09-13T03:31:21;97554.38;;;7.86;100.00
21753;BME280;11038;50.940;20.564;2022-09-13T03:33:06;97561.44;;;7.78;100.00
21753;BME280;11038;50.940;20.564;2022-09-13T03:37:19;97554.66;;;7.83;100.00
21753;BME280;11038;50.940;20.564;2022-09-13T03:44:01;97557.59;;;7.72;100.00
21753;BME280;11038;50.940;20.564;2022-09-13T03:45:39;97555.63;;;7.74;100.00
21753;BME280;11038;50.940;20.564;2022-09-13T03:47:15;97552.81;;;7.75;100.00
21753;BME280;11038;50.940;20.564;2022-09-13T03:48:48;97555.63;;;7.74;100.00
21753;BME280;11038;50.940;20.564;2022-09-13T03:50:23;97555.94;;;7.71;100.00
21753;BME280;11038;50.940;20.564;2022-09-13T03:51:57;97563.91;;;7.71;100.00
21753;BME280;11038;50.940;20.564;2022-09-13T03:53:33;97565.06;;;7.68;100.00
21753;BME280;11038;50.940;20.564;2022-09-13T03:55:06;97557.41;;;7.65;100.00
21753;BME280;11038;50.940;20.564;2022-09-13T03:56:39;97553.72;;;7.66;100.00
21753;BME280;11038;50.940;20.564;2022-09-13T03:58:13;97561.56;;;7.68;100.00
21753;BME280;11038;50.940;20.564;2022-09-13T03:59:48;97556.25;;;7.68;100.00
21753;BME280;11038;50.940;20.564;2022-09-13T04:01:22;97563.25;;;7.69;100.00
21753;BME280;11038;50.940;20.564;2022-09-13T04:02:55;97563.25;;;7.69;100.00
21753;BME280;11038;50.940;20.564;2022-09-13T04:04:27;97558.59;;;7.71;100.00
21753;BME280;11038;50.940;20.564;2022-09-13T04:05:59;97562.78;;;7.73;100.00
21753;BME280;11038;50.940;20.564;2022-09-13T04:07:31;97560.94;;;7.74;100.00
21753;BME280;11038;50.940;20.564;2022-09-13T04:09:04;97562.47;;;7.77;100.00
21753;BME280;11038;50.940;20.564;2022-09-13T04:10:36;97559.47;;;7.80;100.00
21753;BME280;11038;50.940;20.564;2022-09-13T04:12:08;97567.31;;;7.81;100.00
21753;BME280;11038;50.940;20.564;2022-09-13T04:13:44;97565.31;;;7.83;100.00
21753;BME280;11038;50.940;20.564;2022-09-13T04:15:17;97551.88;;;7.85;100.00
21753;BME280;11038;50.940;20.564;2022-09-13T04:16:49;97553.22;;;7.89;100.00
21753;BME280;11038;50.940;20.564;2022-09-13T04:18:21;97558.28;;;8.01;100.00
21753;BME280;11038;50.940;20.564;2022-09-13T04:19:53;97551.97;;;8.10;100.00
21753;BME280;11038;50.940;20.564;2022-09-13T04:21:25;97557.69;;;8.24;100.00
21753;BME280;11038;50.940;20.564;2022-09-13T04:22:57;97553.78;;;8.45;100.00
21753;BME280;11038;50.940;20.564;2022-09-13T04:24:30;97559.22;;;8.70;100.00
21753;BME280;11038;50.940;20.564;2022-09-13T04:26:03;97554.09;;;8.93;100.00
21753;BME280;11038;50.940;20.564;2022-09-13T04:27:36;97551.59;;;9.17;100.00
21753;BME280;11038;50.940;20.564;2022-09-13T04:29:08;97548.09;;;9.50;100.00
21753;BME280;11038;50.940;20.564;2022-09-13T04:30:46;97549.06;;;9.74;100.00
21753;BME280;11038;50.940;20.564;2022-09-13T04:32:18;97541.63;;;10.10;100.00
21753;BME280;11038;50.940;20.564;2022-09-13T04:33:50;97544.22;;;10.35;100.00
21753;BME280;11038;50.940;20.564;2022-09-13T04:35:22;97545.97;;;10.59;100.00
21753;BME280;11038;50.940;20.564;2022-09-13T04:36:54;97549.69;;;10.82;100.00
21753;BME280;11038;50.940;20.564;2022-09-13T04:38:27;97544.63;;;10.87;100.00
21753;BME280;11038;50.940;20.564;2022-09-13T04:40:00;97546.00;;;10.83;100.00
21753;BME280;11038;50.940;20.564;2022-09-13T04:41:32;97548.34;;;10.86;100.00
21753;BME280;11038;50.940;20.564;2022-09-13T04:43:05;97544.81;;;11.09;100.00
21753;BME280;11038;50.940;20.564;2022-09-13T04:44:37;97545.28;;;11.36;99.54
21753;BME280;11038;50.940;20.564;2022-09-13T04:46:10;97544.50;;;11.27;98.30
21753;BME280;11038;50.940;20.564;2022-09-13T04:47:42;97551.66;;;11.35;97.77
21753;BME280;11038;50.940;20.564;2022-09-13T04:49:15;97539.63;;;11.70;97.79
21753;BME280;11038;50.940;20.564;2022-09-13T04:50:49;97540.28;;;12.02;97.67
21753;BME280;11038;50.940;20.564;2022-09-13T04:52:21;97542.34;;;12.31;96.87
21753;BME280;11038;50.940;20.564;2022-09-13T04:53:54;97544.13;;;12.60;96.65
21753;BME280;11038;50.940;20.564;2022-09-13T04:55:27;97544.09;;;12.98;94.98
21753;BME280;11038;50.940;20.564;2022-09-13T04:56:59;97548.13;;;13.31;94.25
21753;BME280;11038;50.940;20.564;2022-09-13T04:58:32;97549.31;;;13.72;91.76
21753;BME280;11038;50.940;20.564;2022-09-13T05:00:04;97542.50;;;14.12;89.91
21753;BME280;11038;50.940;20.564;2022-09-13T05:01:37;97545.31;;;13.90;84.38
21753;BME280;11038;50.940;20.564;2022-09-13T05:03:49;97549.47;;;13.99;80.55
21753;BME280;11038;50.940;20.564;2022-09-13T05:05:22;97552.59;;;14.38;79.68
21753;BME280;11038;50.940;20.564;2022-09-13T05:06:56;97551.56;;;15.02;78.52
21753;BME280;11038;50.940;20.564;2022-09-13T05:08:30;97552.22;;;15.38;75.75
21753;BME280;11038;50.940;20.564;2022-09-13T05:10:02;97553.50;;;15.56;73.29
21753;BME280;11038;50.940;20.564;2022-09-13T05:11:35;97542.94;;;15.48;71.18
21753;BME280;11038;50.940;20.564;2022-09-13T05:13:07;97547.66;;;15.87;70.51
21753;BME280;11038;50.940;20.564;2022-09-13T05:14:39;97546.78;;;16.27;68.02
21753;BME280;11038;50.940;20.564;2022-09-13T05:16:11;97548.31;;;16.55;65.79
21753;BME280;11038;50.940;20.564;2022-09-13T05:17:43;97546.72;;;16.80;64.13
21753;BME280;11038;50.940;20.564;2022-09-13T05:19:16;97547.63;;;17.06;62.45
21753;BME280;11038;50.940;20.564;2022-09-13T05:20:48;97541.84;;;17.35;60.99
21753;BME280;11038;50.940;20.564;2022-09-13T05:22:20;97554.84;;;17.70;59.08
21753;BME280;11038;50.940;20.564;2022-09-13T05:23:53;97547.63;;;17.90;57.65
21753;BME280;11038;50.940;20.564;2022-09-13T05:25:25;97542.25;;;18.28;56.50
21753;BME280;11038;50.940;20.564;2022-09-13T05:26:57;97543.38;;;18.57;55.32
21753;BME280;11038;50.940;20.564;2022-09-13T05:28:32;97547.16;;;18.87;54.38
21753;BME280;11038;50.940;20.564;2022-09-13T05:30:05;97545.53;;;19.29;53.51
21753;BME280;11038;50.940;20.564;2022-09-13T05:31:40;97538.50;;;19.52;52.87
21753;BME280;11038;50.940;20.564;2022-09-13T05:33:12;97540.66;;;19.74;51.33
21753;BME280;11038;50.940;20.564;2022-09-13T05:34:44;97549.00;;;19.85;50.90
21753;BME280;11038;50.940;20.564;2022-09-13T05:36:17;97546.66;;;19.88;52.47
21753;BME280;11038;50.940;20.564;2022-09-13T05:37:49;97550.00;;;20.56;51.15
21753;BME280;11038;50.940;20.564;2022-09-13T05:39:21;97548.28;;;20.79;49.68
21753;BME280;11038;50.940;20.564;2022-09-13T05:41:13;97541.81;;;20.68;48.90
21753;BME280;11038;50.940;20.564;2022-09-13T05:42:45;97547.84;;;20.70;48.07
21753;BME280;11038;50.940;20.564;2022-09-13T05:44:17;97544.47;;;20.80;48.08
21753;BME280;11038;50.940;20.564;2022-09-13T05:45:50;97547.38;;;20.90;47.16
21753;BME280;11038;50.940;20.564;2022-09-13T05:47:22;97545.34;;;20.98;47.12
21753;BME280;11038;50.940;20.564;2022-09-13T05:48:57;97547.47;;;21.08;47.10
21753;BME280;11038;50.940;20.564;2022-09-13T05:50:30;97547.72;;;21.23;46.21
21753;BME280;11038;50.940;20.564;2022-09-13T05:52:22;97543.63;;;21.38;45.05
21753;BME280;11038;50.940;20.564;2022-09-13T05:53:55;97543.63;;;21.38;45.03
21753;BME280;11038;50.940;20.564;2022-09-13T05:55:28;97546.59;;;21.54;44.54
21753;BME280;11038;50.940;20.564;2022-09-13T05:57:01;97548.31;;;21.77;44.25
21753;BME280;11038;50.940;20.564;2022-09-13T05:58:37;97537.69;;;21.93;43.63
21753;BME280;11038;50.940;20.564;2022-09-13T06:00:10;97542.28;;;22.10;43.75
21753;BME280;11038;50.940;20.564;2022-09-13T06:01:43;97543.97;;;22.16;43.26
21753;BME280;11038;50.940;20.564;2022-09-13T06:03:16;97537.47;;;22.17;42.27
21753;BME280;11038;50.940;20.564;2022-09-13T06:04:48;97550.00;;;22.18;42.08
21753;BME280;11038;50.940;20.564;2022-09-13T06:06:22;97545.41;;;22.19;42.76
21753;BME280;11038;50.940;20.564;2022-09-13T06:07:55;97554.50;;;22.30;42.54
21753;BME280;11038;50.940;20.564;2022-09-13T06:09:27;97550.81;;;22.41;42.25
21753;BME280;11038;50.940;20.564;2022-09-13T06:11:04;97546.53;;;22.45;42.14
21753;BME280;11038;50.940;20.564;2022-09-13T06:12:36;97553.16;;;22.55;41.79
21753;BME280;11038;50.940;20.564;2022-09-13T06:14:09;97549.88;;;22.53;41.50
21753;BME280;11038;50.940;20.564;2022-09-13T06:15:41;97552.56;;;22.48;41.71
21753;BME280;11038;50.940;20.564;2022-09-13T06:17:14;97542.03;;;22.56;41.82
21753;BME280;11038;50.940;20.564;2022-09-13T06:18:46;97551.72;;;22.47;42.13
21753;BME280;11038;50.940;20.564;2022-09-13T06:20:19;97548.09;;;22.41;42.09
21753;BME280;11038;50.940;20.564;2022-09-13T06:21:51;97545.97;;;22.43;42.31
21753;BME280;11038;50.940;20.564;2022-09-13T06:23:23;97551.44;;;22.43;42.10
21753;BME280;11038;50.940;20.564;2022-09-13T06:24:55;97550.16;;;22.51;41.95
21753;BME280;11038;50.940;20.564;2022-09-13T06:26:27;97543.94;;;22.56;42.37
21753;BME280;11038;50.940;20.564;2022-09-13T06:27:59;97548.63;;;22.61;42.38
21753;BME280;11038;50.940;20.564;2022-09-13T06:29:31;97548.50;;;22.50;42.82
21753;BME280;11038;50.940;20.564;2022-09-13T06:31:09;97547.84;;;22.65;43.09
21753;BME280;11038;50.940;20.564;2022-09-13T06:32:42;97545.44;;;22.69;42.85
21753;BME280;11038;50.940;20.564;2022-09-13T06:34:14;97544.06;;;22.66;42.79
21753;BME280;11038;50.940;20.564;2022-09-13T06:35:47;97549.06;;;22.52;43.21
21753;BME280;11038;50.940;20.564;2022-09-13T06:37:19;97553.06;;;22.44;43.59
21753;BME280;11038;50.940;20.564;2022-09-13T06:38:53;97543.81;;;22.45;43.16
21753;BME280;11038;50.940;20.564;2022-09-13T06:40:25;97546.53;;;22.45;43.29
21753;BME280;11038;50.940;20.564;2022-09-13T06:41:57;97547.47;;;22.34;43.69
21753;BME280;11038;50.940;20.564;2022-09-13T06:43:30;97546.31;;;22.30;43.14
21753;BME280;11038;50.940;20.564;2022-09-13T06:45:02;97548.69;;;22.43;43.70
21753;BME280;11038;50.940;20.564;2022-09-13T06:46:35;97547.97;;;22.31;43.78
21753;BME280;11038;50.940;20.564;2022-09-13T06:48:07;97551.34;;;22.38;44.54
21753;BME280;11038;50.940;20.564;2022-09-13T06:49:40;97553.88;;;22.45;43.59
21753;BME280;11038;50.940;20.564;2022-09-13T06:51:18;97543.44;;;22.59;42.97
21753;BME280;11038;50.940;20.564;2022-09-13T06:52:50;97552.34;;;22.54;43.72
21753;BME280;11038;50.940;20.564;2022-09-13T06:54:22;97553.41;;;22.71;43.81
21753;BME280;11038;50.940;20.564;2022-09-13T06:57:38;97559.72;;;22.54;43.40
21753;BME280;11038;50.940;20.564;2022-09-13T06:59:10;97550.50;;;22.60;42.71
21753;BME280;11038;50.940;20.564;2022-09-13T07:00:42;97554.56;;;22.80;42.65
21753;BME280;11038;50.940;20.564;2022-09-13T07:02:15;97555.03;;;22.72;42.47
21753;BME280;11038;50.940;20.564;2022-09-13T07:03:53;97550.56;;;22.88;42.61
21753;BME280;11038;50.940;20.564;2022-09-13T07:05:25;97556.84;;;22.88;42.31
21753;BME280;11038;50.940;20.564;2022-09-13T07:06:58;97561.84;;;23.25;42.33
21753;BME280;11038;50.940;20.564;2022-09-13T07:08:31;97557.91;;;23.43;41.74
21753;BME280;11038;50.940;20.564;2022-09-13T07:10:03;97559.19;;;23.35;42.16
21753;BME280;11038;50.940;20.564;2022-09-13T07:11:37;97557.16;;;22.92;42.57
21753;BME280;11038;50.940;20.564;2022-09-13T07:13:10;97554.38;;;22.87;43.24
21753;BME280;11038;50.940;20.564;2022-09-13T07:14:42;97556.00;;;22.65;44.46
21753;BME280;11038;50.940;20.564;2022-09-13T07:16:14;97551.22;;;22.50;44.96
21753;BME280;11038;50.940;20.564;2022-09-13T07:17:46;97544.78;;;21.94;46.24
21753;BME280;11038;50.940;20.564;2022-09-13T07:19:20;97549.28;;;22.06;46.46
21753;BME280;11038;50.940;20.564;2022-09-13T07:21:05;97551.84;;;22.12;46.94
21753;BME280;11038;50.940;20.564;2022-09-13T07:22:37;97558.84;;;22.08;47.20
21753;BME280;11038;50.940;20.564;2022-09-13T07:24:10;97551.00;;;22.12;47.47
21753;BME280;11038;50.940;20.564;2022-09-13T07:25:42;97545.81;;;22.33;47.47
21753;BME280;11038;50.940;20.564;2022-09-13T07:27:14;97546.84;;;22.27;47.77
21753;BME280;11038;50.940;20.564;2022-09-13T07:28:50;97548.09;;;22.41;48.03
21753;BME280;11038;50.940;20.564;2022-09-13T07:30:22;97552.22;;;22.44;47.56
21753;BME280;11038;50.940;20.564;2022-09-13T07:31:56;97555.16;;;22.60;47.67
21753;BME280;11038;50.940;20.564;2022-09-13T07:33:29;97559.06;;;22.24;48.02
21753;BME280;11038;50.940;20.564;2022-09-13T07:35:01;97561.41;;;22.60;47.66
21753;BME280;11038;50.940;20.564;2022-09-13T07:36:35;97560.16;;;22.68;48.21
21753;BME280;11038;50.940;20.564;2022-09-13T07:38:07;97556.59;;;22.67;48.17
21753;BME280;11038;50.940;20.564;2022-09-13T07:39:40;97561.31;;;22.72;49.35
21753;BME280;11038;50.940;20.564;2022-09-13T07:41:17;97549.56;;;22.94;48.62
21753;BME280;11038;50.940;20.564;2022-09-13T07:42:49;97556.50;;;23.07;48.15
21753;BME280;11038;50.940;20.564;2022-09-13T07:44:21;97554.28;;;23.04;48.13
21753;BME280;11038;50.940;20.564;2022-09-13T07:46:03;97556.59;;;23.18;48.01
21753;BME280;11038;50.940;20.564;2022-09-13T07:47:36;97555.44;;;23.41;47.48
21753;BME280;11038;50.940;20.564;2022-09-13T07:49:12;97551.34;;;23.39;47.57
21753;BME280;11038;50.940;20.564;2022-09-13T07:50:55;97552.00;;;23.23;47.92
21753;BME280;11038;50.940;20.564;2022-09-13T07:52:28;97546.78;;;23.17;47.49
21753;BME280;11038;50.940;20.564;2022-09-13T07:54:02;97545.72;;;23.23;47.52
21753;BME280;11038;50.940;20.564;2022-09-13T07:55:35;97552.72;;;23.41;47.58
21753;BME280;11038;50.940;20.564;2022-09-13T07:57:07;97547.06;;;23.20;47.84
21753;BME280;11038;50.940;20.564;2022-09-13T07:58:41;97554.16;;;23.21;47.04
21753;BME280;11038;50.940;20.564;2022-09-13T08:00:14;97548.91;;;23.15;47.46
21753;BME280;11038;50.940;20.564;2022-09-13T08:01:49;97553.66;;;22.97;47.71
21753;BME280;11038;50.940;20.564;2022-09-13T08:03:21;97555.38;;;23.03;48.13
21753;BME280;11038;50.940;20.564;2022-09-13T08:04:54;97552.44;;;23.10;47.82
21753;BME280;11038;50.940;20.564;2022-09-13T08:06:28;97555.09;;;23.05;47.46
21753;BME280;11038;50.940;20.564;2022-09-13T08:08:01;97551.22;;;22.95;48.29
21753;BME280;11038;50.940;20.564;2022-09-13T08:09:33;97556.56;;;22.90;47.91
21753;BME280;11038;50.940;20.564;2022-09-13T08:11:05;97549.91;;;22.75;47.80
21753;BME280;11038;50.940;20.564;2022-09-13T08:12:38;97547.22;;;22.58;48.51
21753;BME280;11038;50.940;20.564;2022-09-13T08:14:12;97555.06;;;22.54;49.11
21753;BME280;11038;50.940;20.564;2022-09-13T08:15:44;97552.56;;;22.48;48.56
21753;BME280;11038;50.940;20.564;2022-09-13T08:17:17;97550.53;;;22.38;49.61
21753;BME280;11038;50.940;20.564;2022-09-13T08:18:51;97542.03;;;22.34;49.90
21753;BME280;11038;50.940;20.564;2022-09-13T08:20:24;97546.84;;;22.27;49.91
21753;BME280;11038;50.940;20.564;2022-09-13T08:21:56;97534.31;;;22.26;49.84
21753;BME280;11038;50.940;20.564;2022-09-13T08:23:29;97534.31;;;22.26;50.16
21753;BME280;11038;50.940;20.564;2022-09-13T08:25:01;97531.09;;;22.29;50.44
21753;BME280;11038;50.940;20.564;2022-09-13T08:26:34;97533.88;;;22.34;50.12
21753;BME280;11038;50.940;20.564;2022-09-13T08:28:12;97522.56;;;22.42;50.56
21753;BME280;11038;50.940;20.564;2022-09-13T08:29:45;97525.34;;;22.48;49.60
21753;BME280;11038;50.940;20.564;2022-09-13T08:31:17;97515.72;;;22.62;49.99
21753;BME280;11038;50.940;20.564;2022-09-13T08:32:51;97514.66;;;22.68;49.13
21753;BME280;11038;50.940;20.564;2022-09-13T08:34:23;97516.13;;;22.76;48.52
21753;BME280;11038;50.940;20.564;2022-09-13T08:35:55;97522.84;;;22.91;48.91
21753;BME280;11038;50.940;20.564;2022-09-13T08:37:31;97523.56;;;23.09;48.49
21753;BME280;11038;50.940;20.564;2022-09-13T08:39:05;97513.50;;;23.15;47.89
21753;BME280;11038;50.940;20.564;2022-09-13T08:40:40;97510.78;;;23.15;48.01
21753;BME280;11038;50.940;20.564;2022-09-13T08:42:37;97518.84;;;23.32;47.58
21753;BME280;11038;50.940;20.564;2022-09-13T08:49:26;97513.00;;;23.51;46.03
21753;BME280;11038;50.940;20.564;2022-09-13T08:51:03;97500.25;;;23.57;46.18
21753;BME280;11038;50.940;20.564;2022-09-13T08:53:05;97512.25;;;23.55;46.45
21753;BME280;11038;50.940;20.564;2022-09-13T08:54:40;97520.94;;;23.52;46.18
21753;BME280;11038;50.940;20.564;2022-09-13T08:56:19;97512.91;;;23.40;46.91
21753;BME280;11038;50.940;20.564;2022-09-13T08:58:10;97515.59;;;23.35;46.55
21753;BME280;11038;50.940;20.564;2022-09-13T09:00:29;97513.34;;;23.27;46.96
21753;BME280;11038;50.940;20.564;2022-09-13T09:05:57;97512.59;;;23.37;48.28
21753;BME280;11038;50.940;20.564;2022-09-13T09:07:33;97522.97;;;23.40;47.93
21753;BME280;11038;50.940;20.564;2022-09-13T09:09:17;97519.44;;;23.39;47.61
21753;BME280;11038;50.940;20.564;2022-09-13T09:10:52;97516.78;;;23.44;48.04
21753;BME280;11038;50.940;20.564;2022-09-13T09:12:56;97518.59;;;23.33;48.07
21753;BME280;11038;50.940;20.564;2022-09-13T09:14:39;97513.66;;;23.30;48.47
21753;BME280;11038;50.940;20.564;2022-09-13T09:16:38;97515.50;;;23.52;47.79
21753;BME280;11038;50.940;20.564;2022-09-13T09:18:18;97511.72;;;23.64;46.93
21753;BME280;11038;50.940;20.564;2022-09-13T09:19:57;97513.69;;;23.36;48.03
21753;BME280;11038;50.940;20.564;2022-09-13T09:21:34;97516.03;;;23.21;47.70
21753;BME280;11038;50.940;20.564;2022-09-13T09:24:55;97508.63;;;23.17;48.07
21753;BME280;11038;50.940;20.564;2022-09-13T09:26:29;97505.88;;;23.11;48.39
21753;BME280;11038;50.940;20.564;2022-09-13T09:28:10;97511.97;;;22.96;48.16